Time;durP1;ratioP1;P1;durP2;ratioP2;P2;SDS_P1;SDS_P2;PMS_P1;PMS_P2;Temp;Humidity;BMP_temperature;BMP_pressure;BME280_temperature;BME280_humidity;BME280_pressure;Samples;Min_cycle;Max_cycle;Signal;HPM_P1;HPM_P2
2024/02/25 00:02:04;;;;;;;4.95;1.67;;;;;;;;;;5072265;28;20074;-77
2024/02/25 00:04:30;;;;;;;3.95;1.40;;;;;;;;;;5072299;28;20492;-76
2024/02/25 00:06:56;;;;;;;5.05;1.42;;;;;;;;;;5073610;28;20024;-76
2024/02/25 00:09:22;;;;;;;7.43;2.05;;;;;;;;;;5074269;28;20029;-76
2024/02/25 00:11:48;;;;;;;6.30;1.98;;;;;;;;;;5072731;28;20020;-76
2024/02/25 00:14:14;;;;;;;3.80;1.30;;;;;;;;;;5071939;28;20049;-77
2024/02/25 00:16:41;;;;;;;4.90;1.90;;;;;;;;;;5072013;28;20023;-77
2024/02/25 00:19:07;;;;;;;4.05;1.63;;;;;;;;;;5071947;28;20025;-75
2024/02/25 00:21:33;;;;;;;5.68;1.20;;;;;;;;;;5072093;28;20060;-76
2024/02/25 00:24:00;;;;;;;3.88;1.40;;;;;;;;;;5073294;28;20020;-75
2024/02/25 00:26:27;;;;;;;7.47;1.50;;;;;;;;;;5071977;28;20024;-76
2024/02/25 00:28:53;;;;;;;4.03;1.65;;;;;;;;;;5071946;28;20497;-75
2024/02/25 00:31:19;;;;;;;3.88;1.38;;;;;;;;;;5071905;28;20040;-75
2024/02/25 00:33:46;;;;;;;4.07;1.35;;;;;;;;;;5071620;28;20460;-75
2024/02/25 00:36:12;;;;;;;4.63;1.75;;;;;;;;;;5071592;28;20418;-77
2024/02/25 00:38:38;;;;;;;7.80;2.30;;;;;;;;;;5071848;28;20419;-78
2024/02/25 00:41:05;;;;;;;4.07;1.40;;;;;;;;;;5071155;28;20028;-79
2024/02/25 00:43:31;;;;;;;6.95;1.73;;;;;;;;;;5071726;28;20028;-78
2024/02/25 00:45:57;;;;;;;3.75;1.88;;;;;;;;;;5072536;28;20025;-78
2024/02/25 00:48:23;;;;;;;3.47;1.20;;;;;;;;;;5071660;28;20479;-78
2024/02/25 00:50:49;;;;;;;4.20;1.63;;;;;;;;;;5072843;28;20024;-78
2024/02/25 00:53:16;;;;;;;4.88;1.27;;;;;;;;;;5072602;28;20031;-77
2024/02/25 00:55:42;;;;;;;5.07;1.20;;;;;;;;;;5071530;28;20051;-78
2024/02/25 00:58:08;;;;;;;2.90;1.30;;;;;;;;;;5070914;28;20108;-76
2024/02/25 01:00:34;;;;;;;4.80;1.58;;;;;;;;;;5072778;28;20142;-77
2024/02/25 01:03:00;;;;;;;2.47;1.10;;;;;;;;;;5071218;28;20058;-77
2024/02/25 01:05:27;;;;;;;5.00;1.40;;;;;;;;;;5071292;28;20508;-77
2024/02/25 01:07:53;;;;;;;4.47;1.75;;;;;;;;;;5071323;28;20028;-77
2024/02/25 01:10:19;;;;;;;2.45;1.15;;;;;;;;;;5072298;28;20028;-77
2024/02/25 01:12:45;;;;;;;5.78;1.73;;;;;;;;;;5071150;28;20028;-74
2024/02/25 01:15:11;;;;;;;5.38;1.40;;;;;;;;;;5072321;28;20079;-74
2024/02/25 01:17:37;;;;;;;5.82;1.40;;;;;;;;;;5070934;28;20046;-74
2024/02/25 01:20:03;;;;;;;2.47;1.20;;;;;;;;;;5072142;28;20094;-75
2024/02/25 01:22:29;;;;;;;4.55;1.23;;;;;;;;;;5070983;28;20468;-74
2024/02/25 01:24:55;;;;;;;5.80;1.48;;;;;;;;;;5072129;28;20031;-75
2024/02/25 01:27:21;;;;;;;4.07;1.50;;;;;;;;;;5070715;28;20020;-75
2024/02/25 01:29:47;;;;;;;5.95;1.20;;;;;;;;;;5072392;28;20028;-75
2024/02/25 01:32:16;;;;;;;2.70;1.13;;;;;;;;;;5070652;28;20025;-75
2024/02/25 01:34:42;;;;;;;5.40;1.42;;;;;;;;;;5072173;28;20032;-76
2024/02/25 01:37:08;;;;;;;5.45;1.90;;;;;;;;;;5070676;28;20028;-76
2024/02/25 01:39:34;;;;;;;4.55;1.70;;;;;;;;;;5070901;28;20020;-75
2024/02/25 01:42:00;;;;;;;4.32;1.77;;;;;;;;;;5071934;28;20025;-74
2024/02/25 01:44:27;;;;;;;4.82;1.52;;;;;;;;;;5070842;28;20415;-74
2024/02/25 01:46:53;;;;;;;3.47;1.60;;;;;;;;;;5072216;28;20021;-74
2024/02/25 01:49:19;;;;;;;6.22;2.08;;;;;;;;;;5071887;28;20032;-74
2024/02/25 01:51:46;;;;;;;6.00;1.83;;;;;;;;;;5071835;28;20055;-75
2024/02/25 01:54:13;;;;;;;3.85;1.50;;;;;;;;;;5073918;28;20036;-75
2024/02/25 01:56:39;;;;;;;3.67;1.42;;;;;;;;;;5076083;28;20016;-76
2024/02/25 01:59:05;;;;;;;3.78;1.60;;;;;;;;;;5074446;28;20056;-76
2024/02/25 02:01:36;;;;;;;5.60;1.98;;;;;;;;;;5074511;28;20376;-75
2024/02/25 02:04:02;;;;;;;3.83;1.88;;;;;;;;;;5074385;28;20346;-76
2024/02/25 02:06:29;;;;;;;6.30;1.92;;;;;;;;;;5075820;28;20020;-76
2024/02/25 02:08:55;;;;;;;3.90;1.65;;;;;;;;;;5074495;28;20028;-76
2024/02/25 02:11:21;;;;;;;3.50;1.67;;;;;;;;;;5074190;28;20017;-76
2024/02/25 02:13:48;;;;;;;2.83;1.27;;;;;;;;;;5075208;28;20049;-76
2024/02/25 02:16:15;;;;;;;5.78;1.50;;;;;;;;;;5074127;28;20024;-76
2024/02/25 02:18:41;;;;;;;4.18;1.67;;;;;;;;;;5074379;28;20482;-76
2024/02/25 02:21:09;;;;;;;4.32;1.98;;;;;;;;;;5075667;28;20056;-76
2024/02/25 02:23:35;;;;;;;4.47;1.90;;;;;;;;;;5074534;28;20091;-76
2024/02/25 02:26:01;;;;;;;4.13;1.80;;;;;;;;;;5074526;28;20031;-76
2024/02/25 02:28:27;;;;;;;3.00;1.60;;;;;;;;;;5076194;28;20411;-77
2024/02/25 02:30:53;;;;;;;3.97;1.95;;;;;;;;;;5074020;28;20027;-77
2024/02/25 02:33:19;;;;;;;2.90;1.63;;;;;;;;;;5073440;28;20086;-78
2024/02/25 02:35:45;;;;;;;4.43;1.75;;;;;;;;;;5074101;28;20029;-77
2024/02/25 02:38:12;;;;;;;3.28;1.35;;;;;;;;;;5073839;28;20025;-76
2024/02/25 02:40:38;;;;;;;4.50;2.00;;;;;;;;;;5074041;28;20024;-77
2024/02/25 02:43:04;;;;;;;4.07;1.60;;;;;;;;;;5073683;28;20390;-77
2024/02/25 02:45:30;;;;;;;4.55;1.98;;;;;;;;;;5073599;28;20025;-76
2024/02/25 02:47:57;;;;;;;5.78;2.00;;;;;;;;;;5073913;28;20107;-76
2024/02/25 02:50:23;;;;;;;3.85;1.90;;;;;;;;;;5073765;28;20024;-76
2024/02/25 02:52:49;;;;;;;3.30;1.70;;;;;;;;;;5073837;28;20071;-75
2024/02/25 02:55:15;;;;;;;3.88;1.95;;;;;;;;;;5074931;28;20047;-75
2024/02/25 02:57:41;;;;;;;3.22;1.60;;;;;;;;;;5074933;28;20048;-76
2024/02/25 03:00:08;;;;;;;5.97;1.50;;;;;;;;;;5073495;28;20035;-76
2024/02/25 03:02:34;;;;;;;3.70;1.70;;;;;;;;;;5073776;28;20037;-76
2024/02/25 03:05:00;;;;;;;4.80;1.35;;;;;;;;;;5073325;28;20078;-76
2024/02/25 03:07:30;;;;;;;9.32;2.00;;;;;;;;;;5074644;28;20827;-77
2024/02/25 03:09:56;;;;;;;5.78;1.60;;;;;;;;;;5073659;28;20032;-77
2024/02/25 03:12:22;;;;;;;4.35;2.00;;;;;;;;;;5073292;28;20028;-77
2024/02/25 03:14:48;;;;;;;4.88;1.70;;;;;;;;;;5073236;28;20427;-76
2024/02/25 03:17:14;;;;;;;5.07;2.45;;;;;;;;;;5074452;28;20032;-76
2024/02/25 03:19:40;;;;;;;5.07;2.10;;;;;;;;;;5073303;28;20025;-75
2024/02/25 03:22:07;;;;;;;3.28;1.60;;;;;;;;;;5074674;28;20089;-76
2024/02/25 03:24:36;;;;;;;5.65;1.50;;;;;;;;;;5073037;28;20033;-77
2024/02/25 03:27:02;;;;;;;5.60;1.88;;;;;;;;;;5073281;28;20166;-77
2024/02/25 03:29:28;;;;;;;6.68;1.90;;;;;;;;;;5074578;28;20024;-75
2024/02/25 03:31:54;;;;;;;3.70;1.50;;;;;;;;;;5074008;28;20023;-78
2024/02/25 03:34:20;;;;;;;4.95;1.67;;;;;;;;;;5072479;28;20044;-78
2024/02/25 03:36:46;;;;;;;3.67;1.90;;;;;;;;;;5074585;28;20017;-77
2024/02/25 03:39:12;;;;;;;6.57;1.85;;;;;;;;;;5074117;28;20050;-78
2024/02/25 03:41:38;;;;;;;6.70;2.00;;;;;;;;;;5072909;28;20017;-77
2024/02/25 03:44:04;;;;;;;3.55;1.40;;;;;;;;;;5072641;28;20384;-76
2024/02/25 03:46:30;;;;;;;3.60;1.40;;;;;;;;;;5072736;28;20039;-76
2024/02/25 03:48:56;;;;;;;2.60;1.48;;;;;;;;;;5073852;28;20472;-75
2024/02/25 03:51:22;;;;;;;4.53;1.67;;;;;;;;;;5072490;28;20029;-75
2024/02/25 03:53:48;;;;;;;4.78;1.77;;;;;;;;;;5072550;28;20074;-75
2024/02/25 03:56:14;;;;;;;2.95;1.08;;;;;;;;;;5073714;28;20021;-75
2024/02/25 03:58:40;;;;;;;2.58;1.27;;;;;;;;;;5072580;28;20024;-75
2024/02/25 04:01:06;;;;;;;2.45;1.10;;;;;;;;;;5072336;28;20455;-75
2024/02/25 04:03:32;;;;;;;2.70;1.23;;;;;;;;;;5072528;28;20032;-75
2024/02/25 04:05:59;;;;;;;2.47;1.10;;;;;;;;;;5073325;28;20099;-75
2024/02/25 04:08:25;;;;;;;2.80;1.75;;;;;;;;;;5071963;28;20875;-75
2024/02/25 04:10:51;;;;;;;3.03;1.65;;;;;;;;;;5072353;28;20048;-75
2024/02/25 04:13:17;;;;;;;2.22;1.23;;;;;;;;;;5071802;28;20038;-76
2024/02/25 04:15:44;;;;;;;2.97;1.40;;;;;;;;;;5071590;28;20115;-76
2024/02/25 04:18:10;;;;;;;2.25;1.17;;;;;;;;;;5073140;28;20052;-76
2024/02/25 04:20:36;;;;;;;3.42;1.95;;;;;;;;;;5073523;28;20017;-76
2024/02/25 04:23:02;;;;;;;2.75;1.50;;;;;;;;;;5072051;28;20033;-76
2024/02/25 04:25:28;;;;;;;2.75;1.67;;;;;;;;;;5071761;28;20012;-76
2024/02/25 04:27:54;;;;;;;2.40;1.17;;;;;;;;;;5072026;28;20020;-76
2024/02/25 04:30:20;;;;;;;3.42;1.70;;;;;;;;;;5073077;28;20107;-76
2024/02/25 04:32:47;;;;;;;1.90;1.10;;;;;;;;;;5072882;28;20048;-75
2024/02/25 04:35:13;;;;;;;3.15;1.60;;;;;;;;;;5071736;28;20124;-76
2024/02/25 04:37:40;;;;;;;3.17;1.05;;;;;;;;;;5072026;28;20020;-77
2024/02/25 04:40:06;;;;;;;3.08;1.40;;;;;;;;;;5072375;28;20025;-77
2024/02/25 04:42:32;;;;;;;1.65;1.00;;;;;;;;;;5072485;28;20081;-78
2024/02/25 04:44:58;;;;;;;3.00;1.23;;;;;;;;;;5073254;28;20058;-78
2024/02/25 04:47:24;;;;;;;4.57;1.42;;;;;;;;;;5071371;28;20151;-78
2024/02/25 04:49:50;;;;;;;2.25;1.00;;;;;;;;;;5071597;28;20039;-76
2024/02/25 04:52:16;;;;;;;3.67;1.30;;;;;;;;;;5070857;28;20025;-76
2024/02/25 04:54:45;;;;;;;2.45;1.35;;;;;;;;;;5071370;28;20021;-76
2024/02/25 04:57:13;;;;;;;2.25;1.27;;;;;;;;;;5072596;28;20039;-76
2024/02/25 04:59:41;;;;;;;2.88;1.40;;;;;;;;;;5072763;28;20023;-77
2024/02/25 05:02:07;;;;;;;2.33;1.30;;;;;;;;;;5071107;28;20021;-76
2024/02/25 05:04:35;;;;;;;3.13;1.20;;;;;;;;;;5071040;28;20054;-76
2024/02/25 05:07:01;;;;;;;3.95;1.48;;;;;;;;;;5072630;28;20112;-76
2024/02/25 05:09:28;;;;;;;3.08;1.42;;;;;;;;;;5071099;28;20439;-75
2024/02/25 05:11:54;;;;;;;2.63;1.30;;;;;;;;;;5072498;28;20034;-75
2024/02/25 05:14:20;;;;;;;2.80;1.15;;;;;;;;;;5070643;28;20388;-75
2024/02/25 05:16:47;;;;;;;6.50;1.98;;;;;;;;;;5071107;28;20024;-75
2024/02/25 05:19:13;;;;;;;3.30;1.33;;;;;;;;;;5070809;28;20025;-75
2024/02/25 05:21:42;;;;;;;2.53;1.55;;;;;;;;;;5072742;28;20032;-76
2024/02/25 05:24:08;;;;;;;3.30;1.65;;;;;;;;;;5071049;28;20504;-76
2024/02/25 05:26:35;;;;;;;2.85;1.95;;;;;;;;;;5072158;28;20021;-76
2024/02/25 05:29:01;;;;;;;3.72;1.50;;;;;;;;;;5070640;28;20107;-76
2024/02/25 05:31:27;;;;;;;2.55;1.60;;;;;;;;;;5072062;28;20033;-76
2024/02/25 05:33:53;;;;;;;3.47;1.90;;;;;;;;;;5070816;28;20024;-77
2024/02/25 05:36:22;;;;;;;2.40;1.33;;;;;;;;;;5072094;28;20399;-76
2024/02/25 05:38:48;;;;;;;3.67;1.52;;;;;;;;;;5070892;28;20504;-75
2024/02/25 05:41:14;;;;;;;2.97;1.67;;;;;;;;;;5070756;28;20120;-75
2024/02/25 05:43:44;;;;;;;4.30;1.92;;;;;;;;;;5070911;28;20032;-75
2024/02/25 05:46:10;;;;;;;3.08;1.60;;;;;;;;;;5070837;28;20055;-75
2024/02/25 05:48:37;;;;;;;4.32;1.80;;;;;;;;;;5070768;28;20021;-75
2024/02/25 05:51:04;;;;;;;4.70;1.55;;;;;;;;;;5070736;28;20070;-76
2024/02/25 05:53:31;;;;;;;3.83;1.85;;;;;;;;;;5070369;28;20032;-76
2024/02/25 05:55:57;;;;;;;3.53;2.20;;;;;;;;;;5070988;28;20383;-76
2024/02/25 05:58:23;;;;;;;4.28;2.50;;;;;;;;;;5071826;28;20025;-76
2024/02/25 06:00:49;;;;;;;3.88;1.88;;;;;;;;;;5070673;28;20024;-75
2024/02/25 06:03:15;;;;;;;4.28;1.80;;;;;;;;;;5072065;28;20028;-76
2024/02/25 06:05:41;;;;;;;2.88;1.70;;;;;;;;;;5072174;28;20096;-77
2024/02/25 06:08:07;;;;;;;4.03;2.50;;;;;;;;;;5070670;28;20127;-77
2024/02/25 06:10:34;;;;;;;5.30;1.85;;;;;;;;;;5070461;28;20025;-76
2024/02/25 06:13:00;;;;;;;4.82;2.70;;;;;;;;;;5070503;28;20152;-76
2024/02/25 06:15:26;;;;;;;4.05;2.03;;;;;;;;;;5070275;28;20052;-76
2024/02/25 06:17:52;;;;;;;4.57;2.00;;;;;;;;;;5071861;28;20016;-76
2024/02/25 06:20:18;;;;;;;2.75;1.75;;;;;;;;;;5070311;28;20023;-76
2024/02/25 06:22:44;;;;;;;5.10;2.53;;;;;;;;;;5071799;28;20052;-76
2024/02/25 06:25:10;;;;;;;4.15;2.58;;;;;;;;;;5070469;28;20075;-77
2024/02/25 06:27:37;;;;;;;4.30;2.45;;;;;;;;;;5070264;28;20048;-74
2024/02/25 06:30:04;;;;;;;5.45;2.80;;;;;;;;;;5070429;28;20044;-76
2024/02/25 06:32:31;;;;;;;5.93;4.10;;;;;;;;;;5069731;28;20464;-76
2024/02/25 06:34:58;;;;;;;5.78;2.85;;;;;;;;;;5070239;28;20480;-76
2024/02/25 06:37:26;;;;;;;6.38;3.90;;;;;;;;;;5069944;28;20134;-75
2024/02/25 06:39:52;;;;;;;5.32;3.28;;;;;;;;;;5072852;28;20475;-75
2024/02/25 06:42:18;;;;;;;5.47;3.85;;;;;;;;;;5075038;28;20028;-75
2024/02/25 06:44:44;;;;;;;5.07;3.03;;;;;;;;;;5074951;28;20411;-76
2024/02/25 06:47:10;;;;;;;4.55;2.97;;;;;;;;;;5075301;28;20028;-76
2024/02/25 06:49:37;;;;;;;5.97;3.42;;;;;;;;;;5075084;28;20647;-76
2024/02/25 06:52:03;;;;;;;6.97;3.83;;;;;;;;;;5075061;28;20100;-76
2024/02/25 06:54:31;;;;;;;6.20;4.18;;;;;;;;;;5073703;28;20064;-75
2024/02/25 06:56:57;;;;;;;5.43;2.97;;;;;;;;;;5074378;28;20456;-76
2024/02/25 06:59:23;;;;;;;5.60;3.33;;;;;;;;;;5073275;28;20024;-76
2024/02/25 07:01:49;;;;;;;7.40;4.15;;;;;;;;;;5073539;28;20028;-76
2024/02/25 07:04:15;;;;;;;6.20;3.63;;;;;;;;;;5073504;28;20035;-76
2024/02/25 07:06:42;;;;;;;5.80;2.80;;;;;;;;;;5074563;28;20021;-76
2024/02/25 07:09:08;;;;;;;5.18;3.15;;;;;;;;;;5073370;28;20388;-76
2024/02/25 07:11:34;;;;;;;6.43;3.60;;;;;;;;;;5073138;28;20020;-76
2024/02/25 07:14:00;;;;;;;6.80;3.45;;;;;;;;;;5072929;28;20052;-76
2024/02/25 07:16:27;;;;;;;6.22;3.72;;;;;;;;;;5073157;28;20039;-76
2024/02/25 07:18:53;;;;;;;6.43;3.83;;;;;;;;;;5074576;28;20024;-76
2024/02/25 07:21:20;;;;;;;6.80;4.32;;;;;;;;;;5073037;28;20452;-76
2024/02/25 07:23:46;;;;;;;6.50;4.80;;;;;;;;;;5073173;28;20028;-77
2024/02/25 07:26:13;;;;;;;6.88;4.53;;;;;;;;;;5073127;28;20075;-77
2024/02/25 07:28:40;;;;;;;6.65;4.05;;;;;;;;;;5074165;28;20017;-77
2024/02/25 07:31:12;;;;;;;7.82;5.03;;;;;;;;;;5073094;28;20048;-77
2024/02/25 07:33:38;;;;;;;6.47;3.83;;;;;;;;;;5072453;28;20032;-76
2024/02/25 07:36:09;;;;;;;10.52;3.95;;;;;;;;;;5074290;28;20025;-77
2024/02/25 07:38:35;;;;;;;11.13;5.78;;;;;;;;;;5072672;28;20034;-78
2024/02/25 07:41:01;;;;;;;7.35;5.32;;;;;;;;;;5072865;28;20383;-77
2024/02/25 07:43:27;;;;;;;6.95;3.72;;;;;;;;;;5073495;28;20060;-77
2024/02/25 07:45:54;;;;;;;7.38;3.88;;;;;;;;;;5072588;28;20055;-77
2024/02/25 07:48:20;;;;;;;7.95;5.00;;;;;;;;;;5073820;28;20029;-77
2024/02/25 07:50:46;;;;;;;7.50;5.25;;;;;;;;;;5071683;28;20078;-77
2024/02/25 07:53:12;;;;;;;7.78;3.97;;;;;;;;;;5072545;28;20029;-77
2024/02/25 07:55:38;;;;;;;8.13;4.25;;;;;;;;;;5073405;28;20031;-76
2024/02/25 07:58:05;;;;;;;6.50;3.75;;;;;;;;;;5072589;28;20024;-76
2024/02/25 08:00:32;;;;;;;6.78;4.70;;;;;;;;;;5072320;28;20029;-75
2024/02/25 08:02:58;;;;;;;5.03;3.35;;;;;;;;;;5072050;28;20025;-76
2024/02/25 08:05:25;;;;;;;9.98;5.70;;;;;;;;;;5072209;28;20025;-76
2024/02/25 08:07:52;;;;;;;7.15;4.85;;;;;;;;;;5073660;28;20025;-76
2024/02/25 08:10:19;;;;;;;7.35;4.60;;;;;;;;;;5073648;28;20020;-75
2024/02/25 08:12:46;;;;;;;11.57;6.13;;;;;;;;;;5072172;28;20036;-77
2024/02/25 08:15:13;;;;;;;8.27;5.00;;;;;;;;;;5071771;28;20052;-77
2024/02/25 08:17:39;;;;;;;9.68;5.30;;;;;;;;;;5071845;28;20028;-77
2024/02/25 08:20:06;;;;;;;6.95;4.03;;;;;;;;;;5072104;28;20021;-77
2024/02/25 08:22:32;;;;;;;8.80;4.25;;;;;;;;;;5073130;28;20051;-77
2024/02/25 08:25:01;;;;;;;7.95;3.65;;;;;;;;;;5071952;28;20371;-77
2024/02/25 08:27:32;;;;;;;9.10;4.97;;;;;;;;;;5071582;28;20028;-76
2024/02/25 08:30:01;;;;;;;7.93;5.00;;;;;;;;;;5073515;28;20070;-77
2024/02/25 08:32:27;;;;;;;7.90;4.40;;;;;;;;;;5071409;28;20024;-77
2024/02/25 08:34:56;;;;;;;5.18;3.00;;;;;;;;;;5071666;28;20036;-77
2024/02/25 08:37:22;;;;;;;5.63;3.45;;;;;;;;;;5071534;28;20029;-77
2024/02/25 08:39:49;;;;;;;5.82;3.95;;;;;;;;;;5071685;28;20017;-77
2024/02/25 08:42:15;;;;;;;6.25;4.72;;;;;;;;;;5073001;28;20359;-77
2024/02/25 08:44:41;;;;;;;5.75;3.63;;;;;;;;;;5071359;28;20039;-77
2024/02/25 08:47:07;;;;;;;6.00;4.15;;;;;;;;;;5072636;28;20028;-78
2024/02/25 08:49:34;;;;;;;6.28;2.47;;;;;;;;;;5073058;28;20017;-78
2024/02/25 08:52:00;;;;;;;4.57;2.15;;;;;;;;;;5071515;28;20145;-77
2024/02/25 08:54:26;;;;;;;4.75;2.30;;;;;;;;;;5072325;28;20055;-77
2024/02/25 08:56:53;;;;;;;3.67;2.00;;;;;;;;;;5071381;28;20024;-78
2024/02/25 08:59:19;;;;;;;4.53;2.75;;;;;;;;;;5071436;28;20021;-77
2024/02/25 09:01:45;;;;;;;4.82;2.17;;;;;;;;;;5071088;28;20526;-77
2024/02/25 09:04:13;;;;;;;3.97;1.92;;;;;;;;;;5071278;28;20033;-78
2024/02/25 09:06:39;;;;;;;3.50;2.00;;;;;;;;;;5072451;28;20051;-77
2024/02/25 09:09:05;;;;;;;4.43;2.13;;;;;;;;;;5071314;28;20028;-78
2024/02/25 09:11:31;;;;;;;6.03;3.55;;;;;;;;;;5071189;28;20028;-80
2024/02/25 09:13:57;;;;;;;5.15;2.75;;;;;;;;;;5070773;28;20053;-80
2024/02/25 09:16:23;;;;;;;4.10;2.75;;;;;;;;;;5070877;28;20028;-80
2024/02/25 09:18:50;;;;;;;6.05;3.13;;;;;;;;;;5070818;28;20089;-81
2024/02/25 09:21:16;;;;;;;4.95;3.08;;;;;;;;;;5071224;28;20111;-81
2024/02/25 09:23:42;;;;;;;4.45;2.58;;;;;;;;;;5070918;28;20036;-81
2024/02/25 09:26:09;;;;;;;4.93;3.25;;;;;;;;;;5071131;28;20058;-80
2024/02/25 09:28:35;;;;;;;5.28;3.00;;;;;;;;;;5070754;28;20077;-81
2024/02/25 09:31:01;;;;;;;6.07;3.47;;;;;;;;;;5070905;28;20078;-80
2024/02/25 09:33:29;;;;;;;6.28;3.55;;;;;;;;;;5070753;28;20502;-80
2024/02/25 09:35:56;;;;;;;4.93;3.10;;;;;;;;;;5070999;28;20024;-80
2024/02/25 09:38:22;;;;;;;6.88;2.63;;;;;;;;;;5070886;28;20484;-81
2024/02/25 09:40:53;;;;;;;5.90;3.10;;;;;;;;;;5070283;28;20021;-82
2024/02/25 09:43:19;;;;;;;4.88;2.65;;;;;;;;;;5070909;28;20032;-80
2024/02/25 09:45:47;;;;;;;5.68;3.40;;;;;;;;;;5072005;28;20047;-81
2024/02/25 09:48:14;;;;;;;8.55;3.00;;;;;;;;;;5070821;28;20029;-81
2024/02/25 09:50:41;;;;;;;6.70;2.40;;;;;;;;;;5070368;28;20551;-81
2024/02/25 09:53:07;;;;;;;4.00;2.60;;;;;;;;;;5070600;28;20466;-81
2024/02/25 09:55:33;;;;;;;5.85;3.25;;;;;;;;;;5071798;28;20522;-82
2024/02/25 09:57:59;;;;;;;4.32;2.70;;;;;;;;;;5070582;28;20060;-81
2024/02/25 10:00:25;;;;;;;3.80;2.15;;;;;;;;;;5070464;28;20460;-81
2024/02/25 10:02:51;;;;;;;4.68;2.40;;;;;;;;;;5070607;28;20476;-81
2024/02/25 10:05:19;;;;;;;4.07;2.00;;;;;;;;;;5070704;28;20063;-81
2024/02/25 10:07:45;;;;;;;5.53;2.60;;;;;;;;;;5070181;28;20031;-81
2024/02/25 10:10:12;;;;;;;4.72;2.92;;;;;;;;;;5071931;28;20115;-81
2024/02/25 10:12:41;;;;;;;5.28;2.78;;;;;;;;;;5070503;28;20032;-81
2024/02/25 10:15:10;;;;;;;4.93;2.63;;;;;;;;;;5072206;28;20060;-80
2024/02/25 10:17:36;;;;;;;4.15;2.60;;;;;;;;;;5075447;28;20409;-80
2024/02/25 10:20:06;;;;;;;5.22;2.42;;;;;;;;;;5074281;28;20021;-81
2024/02/25 10:22:32;;;;;;;4.17;2.60;;;;;;;;;;5074345;28;20082;-82
2024/02/25 10:25:07;;;;;;;6.68;3.53;;;;;;;;;;5074510;28;20037;-82
2024/02/25 10:27:33;;;;;;;4.05;2.30;;;;;;;;;;5074430;28;20529;-86
2024/02/25 10:30:00;;;;;;;4.15;2.25;;;;;;;;;;5074414;28;20067;-83
2024/02/25 10:32:26;;;;;;;4.38;2.75;;;;;;;;;;5074477;28;20021;-82
2024/02/25 10:34:52;;;;;;;5.10;2.25;;;;;;;;;;5073955;28;20465;-83
2024/02/25 10:37:20;;;;;;;6.32;3.10;;;;;;;;;;5073974;28;20025;-83
2024/02/25 10:39:47;;;;;;;7.30;2.88;;;;;;;;;;5073828;28;20094;-80
2024/02/25 10:42:14;;;;;;;4.97;2.22;;;;;;;;;;5074114;28;20021;-79
2024/02/25 10:44:41;;;;;;;6.22;2.13;;;;;;;;;;5074821;28;20032;-79
2024/02/25 10:47:11;;;;;;;3.47;1.58;;;;;;;;;;5073928;28;20077;-81
2024/02/25 10:49:38;;;;;;;9.65;2.63;;;;;;;;;;5073624;28;20025;-88
2024/02/25 10:52:05;;;;;;;5.53;2.75;;;;;;;;;;5075720;28;20024;-88
2024/02/25 10:54:31;;;;;;;7.38;3.38;;;;;;;;;;5073888;28;20122;-87
2024/02/25 10:56:57;;;;;;;11.82;3.88;;;;;;;;;;5073971;28;20637;-87
2024/02/25 10:59:24;;;;;;;8.30;2.80;;;;;;;;;;5074166;28;20024;-87
2024/02/25 11:01:51;;;;;;;10.18;2.28;;;;;;;;;;5073450;28;20024;-87
2024/02/25 11:04:18;;;;;;;10.32;3.83;;;;;;;;;;5073592;28;20032;-86
2024/02/25 11:06:45;;;;;;;7.97;2.90;;;;;;;;;;5073200;28;20025;-86
2024/02/25 11:09:12;;;;;;;9.80;3.00;;;;;;;;;;5073293;28;20031;-87
2024/02/25 11:11:38;;;;;;;6.28;4.68;;;;;;;;;;5073171;28;20123;-88
2024/02/25 11:14:11;;;;;;;6.90;3.10;;;;;;;;;;5072635;28;20298;-87
2024/02/25 11:16:39;;;;;;;11.20;4.68;;;;;;;;;;5070956;28;20028;-86
2024/02/25 11:19:09;;;;;;;5.93;4.25;;;;;;;;;;5073241;28;20375;-87
2024/02/25 11:21:38;;;;;;;8.75;5.90;;;;;;;;;;5073302;28;20048;-87
2024/02/25 11:24:14;;;;;;;6.43;4.55;;;;;;;;;;5074077;28;20105;-87
2024/02/25 11:26:41;;;;;;;7.97;3.50;;;;;;;;;;5058995;28;20119;-86
2024/02/25 11:29:13;;;;;;;8.93;4.35;;;;;;;;;;5076532;28;20082;-87
2024/02/25 11:32:06;;;;;;;7.78;4.63;;;;;;;;;;5077155;28;20029;-87
2024/02/25 11:34:37;;;;;;;9.50;5.72;;;;;;;;;;5071279;28;20063;-88
2024/02/25 11:37:04;;;;;;;9.23;5.03;;;;;;;;;;5073078;28;20027;-89
2024/02/25 11:39:31;;;;;;;5.93;3.15;;;;;;;;;;5072966;28;20037;-88
2024/02/25 11:42:04;;;;;;;8.35;4.20;;;;;;;;;;5074537;28;20031;-87
2024/02/25 11:44:32;;;;;;;8.02;4.43;;;;;;;;;;5073050;28;20028;-87
2024/02/25 11:46:59;;;;;;;10.55;5.85;;;;;;;;;;5072737;28;20024;-87
2024/02/25 11:49:25;;;;;;;8.85;5.80;;;;;;;;;;5073221;28;20127;-87
2024/02/25 11:51:52;;;;;;;5.38;4.05;;;;;;;;;;5072530;28;20213;-87
2024/02/25 11:54:19;;;;;;;10.52;5.47;;;;;;;;;;5072854;28;20058;-87
2024/02/25 11:56:45;;;;;;;7.95;3.25;;;;;;;;;;5073704;28;20086;-87
2024/02/25 11:59:12;;;;;;;8.00;5.18;;;;;;;;;;5072872;28;20032;-86
2024/02/25 12:01:38;;;;;;;12.30;5.72;;;;;;;;;;5072524;28;20031;-88
2024/02/25 12:04:05;;;;;;;9.13;5.15;;;;;;;;;;5072722;28;20092;-87
2024/02/25 12:06:35;;;;;;;7.38;3.95;;;;;;;;;;5072200;28;20032;-88
2024/02/25 12:09:07;;;;;;;7.88;5.07;;;;;;;;;;5072321;28;20032;-87
2024/02/25 12:11:34;;;;;;;9.57;5.22;;;;;;;;;;5072134;28;20028;-87
2024/02/25 12:14:08;;;;;;;9.60;5.82;;;;;;;;;;5072319;28;20052;-88
2024/02/25 12:16:34;;;;;;;9.70;5.15;;;;;;;;;;5072092;28;20028;-88
2024/02/25 12:19:01;;;;;;;11.23;5.35;;;;;;;;;;5073826;28;20052;-87
2024/02/25 12:21:27;;;;;;;7.65;4.82;;;;;;;;;;5072356;28;20046;-88
2024/02/25 12:24:01;;;;;;;8.77;4.88;;;;;;;;;;5072069;28;20036;-87
2024/02/25 12:26:27;;;;;;;10.93;5.00;;;;;;;;;;5072561;28;20460;-87
2024/02/25 12:28:54;;;;;;;6.15;2.92;;;;;;;;;;5072004;28;20069;-86
2024/02/25 12:31:20;;;;;;;7.50;3.58;;;;;;;;;;5072037;28;20025;-86
2024/02/25 12:33:47;;;;;;;6.53;3.67;;;;;;;;;;5072937;28;20116;-86
2024/02/25 12:36:14;;;;;;;5.45;2.95;;;;;;;;;;5073602;28;20016;-87
2024/02/25 12:38:48;;;;;;;7.15;3.92;;;;;;;;;;5071045;28;20043;-88
2024/02/25 12:41:15;;;;;;;5.25;2.42;;;;;;;;;;5072098;28;20116;-87
2024/02/25 12:43:44;;;;;;;6.10;2.72;;;;;;;;;;5072639;28;20024;-86
2024/02/25 12:46:10;;;;;;;4.43;2.37;;;;;;;;;;5071553;28;20062;-86
2024/02/25 12:48:36;;;;;;;2.83;1.48;;;;;;;;;;5071391;28;20056;-86
2024/02/25 12:51:03;;;;;;;4.45;1.58;;;;;;;;;;5071931;28;20468;-86
2024/02/25 12:53:30;;;;;;;4.88;1.80;;;;;;;;;;5071470;28;20028;-86
2024/02/25 12:55:57;;;;;;;3.90;1.40;;;;;;;;;;5071212;28;20028;-86
2024/02/25 12:58:23;;;;;;;3.88;1.33;;;;;;;;;;5071515;28;20025;-86
2024/02/25 13:00:50;;;;;;;4.45;1.60;;;;;;;;;;5070950;28;20116;-87
2024/02/25 13:03:16;;;;;;;4.20;1.45;;;;;;;;;;5071799;28;20031;-86
2024/02/25 13:05:42;;;;;;;2.95;1.30;;;;;;;;;;5071695;28;20031;-86
2024/02/25 13:08:08;;;;;;;3.75;1.67;;;;;;;;;;5071483;28;20035;-86
2024/02/25 13:10:39;;;;;;;1.88;1.30;;;;;;;;;;5071406;28;20032;-86
2024/02/25 13:13:05;;;;;;;4.13;1.58;;;;;;;;;;5071253;28;20024;-86
2024/02/25 13:15:31;;;;;;;6.60;1.63;;;;;;;;;;5070836;28;20049;-86
2024/02/25 13:17:59;;;;;;;5.55;1.67;;;;;;;;;;5070796;28;20024;-86
2024/02/25 13:20:25;;;;;;;3.40;1.60;;;;;;;;;;5071017;28;20062;-86
2024/02/25 13:22:51;;;;;;;6.20;2.13;;;;;;;;;;5070812;28;20024;-86
2024/02/25 13:25:18;;;;;;;5.63;1.80;;;;;;;;;;5071211;28;20504;-86
2024/02/25 13:27:44;;;;;;;6.35;2.50;;;;;;;;;;5072359;28;20029;-86
2024/02/25 13:30:11;;;;;;;6.45;2.03;;;;;;;;;;5071102;28;20075;-86
2024/02/25 13:32:37;;;;;;;6.03;1.90;;;;;;;;;;5070894;28;20090;-86
2024/02/25 13:35:04;;;;;;;6.72;1.90;;;;;;;;;;5071179;28;20440;-85
2024/02/25 13:37:30;;;;;;;4.15;1.27;;;;;;;;;;5071339;28;20024;-87
2024/02/25 13:39:56;;;;;;;3.38;1.42;;;;;;;;;;5071341;28;20025;-87
2024/02/25 13:42:23;;;;;;;5.95;2.15;;;;;;;;;;5072478;28;20021;-84
2024/02/25 13:44:49;;;;;;;7.38;1.90;;;;;;;;;;5071753;28;20028;-86
2024/02/25 13:47:16;;;;;;;3.85;1.60;;;;;;;;;;5073504;28;20032;-88
2024/02/25 13:49:42;;;;;;;5.63;1.75;;;;;;;;;;5069265;28;20115;-88
2024/02/25 13:52:08;;;;;;;3.17;1.27;;;;;;;;;;5070757;28;20395;-87
2024/02/25 13:54:34;;;;;;;5.25;1.80;;;;;;;;;;5070778;28;20074;-87
2024/02/25 13:57:00;;;;;;;5.47;1.50;;;;;;;;;;5070612;28;20025;-86
2024/02/25 13:59:26;;;;;;;2.45;0.95;;;;;;;;;;5070654;28;20021;-85
2024/02/25 14:01:53;;;;;;;2.58;0.85;;;;;;;;;;5070282;28;20025;-86
2024/02/25 14:04:19;;;;;;;2.00;0.93;;;;;;;;;;5070572;28;20123;-86
2024/02/25 14:06:46;;;;;;;2.75;0.60;;;;;;;;;;5071787;28;20020;-86
2024/02/25 14:09:12;;;;;;;2.42;0.70;;;;;;;;;;5070806;28;20032;-86
2024/02/25 14:11:39;;;;;;;4.70;0.90;;;;;;;;;;5070406;28;20464;-86
2024/02/25 14:14:05;;;;;;;5.10;1.08;;;;;;;;;;5070246;28;20072;-86
2024/02/25 14:16:31;;;;;;;3.90;0.90;;;;;;;;;;5070474;28;20119;-87
2024/02/25 14:19:00;;;;;;;2.67;0.70;;;;;;;;;;5070464;28;20222;-85
2024/02/25 14:21:28;;;;;;;4.55;0.90;;;;;;;;;;5070574;28;20067;-87
2024/02/25 14:23:54;;;;;;;3.53;0.93;;;;;;;;;;5070071;28;20025;-86
2024/02/25 14:26:21;;;;;;;1.38;0.80;;;;;;;;;;5070064;28;20380;-88
2024/02/25 14:28:47;;;;;;;0.98;0.60;;;;;;;;;;5070374;28;20055;-86
2024/02/25 14:31:14;;;;;;;2.83;0.82;;;;;;;;;;5071001;28;20035;-86
2024/02/25 14:33:40;;;;;;;3.78;1.35;;;;;;;;;;5069765;28;20033;-86
2024/02/25 14:36:06;;;;;;;3.78;0.80;;;;;;;;;;5070415;28;20036;-87
2024/02/25 14:38:32;;;;;;;2.60;0.70;;;;;;;;;;5070106;28;20260;-86
2024/02/25 14:40:58;;;;;;;8.40;1.40;;;;;;;;;;5070015;28;20416;-87